sensor_id;sensor_type;location;lat;lon;timestamp;temperature;humidity
9125;DHT22;4597;48.730;9.114;2023-09-08T00:01:49;18.10;99.90
9125;DHT22;4597;48.730;9.114;2023-09-08T00:04:14;18.10;99.90
9125;DHT22;4597;48.730;9.114;2023-09-08T00:06:41;18.00;99.90
9125;DHT22;4597;48.730;9.114;2023-09-08T00:09:07;18.00;99.90
9125;DHT22;4597;48.730;9.114;2023-09-08T00:11:32;18.00;99.90
9125;DHT22;4597;48.730;9.114;2023-09-08T00:13:58;18.00;99.90
9125;DHT22;4597;48.730;9.114;2023-09-08T00:16:23;17.90;99.90
9125;DHT22;4597;48.730;9.114;2023-09-08T00:18:49;17.90;99.90
9125;DHT22;4597;48.730;9.114;2023-09-08T00:21:15;17.80;99.90
9125;DHT22;4597;48.730;9.114;2023-09-08T00:23:40;17.80;99.90
9125;DHT22;4597;48.730;9.114;2023-09-08T00:26:06;17.80;99.90
9125;DHT22;4597;48.730;9.114;2023-09-08T00:28:31;17.80;99.90
9125;DHT22;4597;48.730;9.114;2023-09-08T00:30:57;17.70;99.90
9125;DHT22;4597;48.730;9.114;2023-09-08T00:33:25;17.70;99.90
9125;DHT22;4597;48.730;9.114;2023-09-08T00:35:50;17.70;99.90
9125;DHT22;4597;48.730;9.114;2023-09-08T00:38:17;17.60;99.90
9125;DHT22;4597;48.730;9.114;2023-09-08T00:40:42;17.60;99.90
9125;DHT22;4597;48.730;9.114;2023-09-08T00:43:08;17.50;99.90
9125;DHT22;4597;48.730;9.114;2023-09-08T00:45:38;17.50;99.90
9125;DHT22;4597;48.730;9.114;2023-09-08T00:48:04;17.40;99.90
9125;DHT22;4597;48.730;9.114;2023-09-08T00:50:30;17.40;99.90
9125;DHT22;4597;48.730;9.114;2023-09-08T00:52:56;17.40;99.90
9125;DHT22;4597;48.730;9.114;2023-09-08T00:55:21;17.30;99.90
9125;DHT22;4597;48.730;9.114;2023-09-08T00:57:47;17.30;99.90
9125;DHT22;4597;48.730;9.114;2023-09-08T01:00:13;17.30;99.90
9125;DHT22;4597;48.730;9.114;2023-09-08T01:02:39;17.20;99.90
9125;DHT22;4597;48.730;9.114;2023-09-08T01:05:05;17.20;99.90
9125;DHT22;4597;48.730;9.114;2023-09-08T01:07:31;17.20;99.90
9125;DHT22;4597;48.730;9.114;2023-09-08T01:09:57;17.20;99.90
9125;DHT22;4597;48.730;9.114;2023-09-08T01:12:23;17.10;99.90
9125;DHT22;4597;48.730;9.114;2023-09-08T01:14:49;17.10;99.90
9125;DHT22;4597;48.730;9.114;2023-09-08T01:17:15;17.10;99.90
9125;DHT22;4597;48.730;9.114;2023-09-08T01:19:41;17.00;99.90
9125;DHT22;4597;48.730;9.114;2023-09-08T01:27:38;16.90;99.90
9125;DHT22;4597;48.730;9.114;2023-09-08T01:30:06;16.90;99.90
9125;DHT22;4597;48.730;9.114;2023-09-08T01:32:32;16.80;99.90
9125;DHT22;4597;48.730;9.114;2023-09-08T01:34:59;16.80;99.90
9125;DHT22;4597;48.730;9.114;2023-09-08T01:37:25;16.70;99.90
9125;DHT22;4597;48.730;9.114;2023-09-08T01:39:51;16.70;99.90
9125;DHT22;4597;48.730;9.114;2023-09-08T01:42:16;16.70;99.90
9125;DHT22;4597;48.730;9.114;2023-09-08T01:44:42;16.70;99.90
9125;DHT22;4597;48.730;9.114;2023-09-08T01:47:07;16.60;99.90
9125;DHT22;4597;48.730;9.114;2023-09-08T01:49:33;16.60;99.90
9125;DHT22;4597;48.730;9.114;2023-09-08T01:51:58;16.50;99.90
9125;DHT22;4597;48.730;9.114;2023-09-08T01:54:24;16.60;99.90
9125;DHT22;4597;48.730;9.114;2023-09-08T01:56:49;16.50;99.90
9125;DHT22;4597;48.730;9.114;2023-09-08T01:59:16;16.50;99.90
9125;DHT22;4597;48.730;9.114;2023-09-08T02:01:42;16.40;99.90
9125;DHT22;4597;48.730;9.114;2023-09-08T02:04:07;16.30;99.90
9125;DHT22;4597;48.730;9.114;2023-09-08T02:06:33;16.30;99.90
9125;DHT22;4597;48.730;9.114;2023-09-08T02:08:58;16.30;99.90
9125;DHT22;4597;48.730;9.114;2023-09-08T02:11:24;16.20;99.90
9125;DHT22;4597;48.730;9.114;2023-09-08T02:13:49;16.20;99.90
9125;DHT22;4597;48.730;9.114;2023-09-08T02:16:15;16.20;99.90
9125;DHT22;4597;48.730;9.114;2023-09-08T02:18:44;16.10;99.90
9125;DHT22;4597;48.730;9.114;2023-09-08T02:21:10;16.10;99.90
9125;DHT22;4597;48.730;9.114;2023-09-08T02:23:36;16.10;99.90
9125;DHT22;4597;48.730;9.114;2023-09-08T02:26:02;16.10;99.90
9125;DHT22;4597;48.730;9.114;2023-09-08T02:28:27;16.10;99.90
9125;DHT22;4597;48.730;9.114;2023-09-08T02:30:54;16.10;99.90
9125;DHT22;4597;48.730;9.114;2023-09-08T02:33:19;16.10;99.90
9125;DHT22;4597;48.730;9.114;2023-09-08T02:35:45;16.10;99.90
9125;DHT22;4597;48.730;9.114;2023-09-08T02:38:10;16.10;99.90
9125;DHT22;4597;48.730;9.114;2023-09-08T02:40:36;16.10;99.90
9125;DHT22;4597;48.730;9.114;2023-09-08T02:43:02;16.00;99.90
9125;DHT22;4597;48.730;9.114;2023-09-08T02:45:28;16.00;99.90
9125;DHT22;4597;48.730;9.114;2023-09-08T02:47:54;16.00;99.90
9125;DHT22;4597;48.730;9.114;2023-09-08T02:50:20;16.00;99.90
9125;DHT22;4597;48.730;9.114;2023-09-08T02:52:45;15.90;99.90
9125;DHT22;4597;48.730;9.114;2023-09-08T02:55:12;15.90;99.90
9125;DHT22;4597;48.730;9.114;2023-09-08T02:57:38;15.90;99.90
9125;DHT22;4597;48.730;9.114;2023-09-08T03:00:04;15.80;99.90
9125;DHT22;4597;48.730;9.114;2023-09-08T03:02:30;15.80;99.90
9125;DHT22;4597;48.730;9.114;2023-09-08T03:04:56;15.80;99.90
9125;DHT22;4597;48.730;9.114;2023-09-08T03:07:22;15.70;99.90
9125;DHT22;4597;48.730;9.114;2023-09-08T03:09:47;15.70;99.90
9125;DHT22;4597;48.730;9.114;2023-09-08T03:12:13;15.70;99.90
9125;DHT22;4597;48.730;9.114;2023-09-08T03:14:39;15.70;99.90
9125;DHT22;4597;48.730;9.114;2023-09-08T03:17:04;15.60;99.90
9125;DHT22;4597;48.730;9.114;2023-09-08T03:19:30;15.60;99.90
9125;DHT22;4597;48.730;9.114;2023-09-08T03:21:56;15.50;99.90
9125;DHT22;4597;48.730;9.114;2023-09-08T03:24:21;15.50;99.90
9125;DHT22;4597;48.730;9.114;2023-09-08T03:26:47;15.50;99.90
9125;DHT22;4597;48.730;9.114;2023-09-08T03:29:12;15.50;99.90
9125;DHT22;4597;48.730;9.114;2023-09-08T03:31:38;15.40;99.90
9125;DHT22;4597;48.730;9.114;2023-09-08T03:34:03;15.40;99.90
9125;DHT22;4597;48.730;9.114;2023-09-08T03:36:29;15.40;99.90
9125;DHT22;4597;48.730;9.114;2023-09-08T03:38:56;15.40;99.90
9125;DHT22;4597;48.730;9.114;2023-09-08T03:41:23;15.40;99.90
9125;DHT22;4597;48.730;9.114;2023-09-08T03:43:49;15.40;99.90
9125;DHT22;4597;48.730;9.114;2023-09-08T03:46:14;15.40;99.90
9125;DHT22;4597;48.730;9.114;2023-09-08T03:48:40;15.30;99.90
9125;DHT22;4597;48.730;9.114;2023-09-08T03:51:05;15.30;99.90
9125;DHT22;4597;48.730;9.114;2023-09-08T03:53:31;15.30;99.90
9125;DHT22;4597;48.730;9.114;2023-09-08T03:55:56;15.30;99.90
9125;DHT22;4597;48.730;9.114;2023-09-08T03:58:22;15.30;99.90
9125;DHT22;4597;48.730;9.114;2023-09-08T04:00:47;15.30;99.90
9125;DHT22;4597;48.730;9.114;2023-09-08T04:03:13;15.30;99.90
9125;DHT22;4597;48.730;9.114;2023-09-08T04:05:38;15.20;99.90
9125;DHT22;4597;48.730;9.114;2023-09-08T04:08:04;15.20;99.90
9125;DHT22;4597;48.730;9.114;2023-09-08T04:10:30;15.20;99.90
9125;DHT22;4597;48.730;9.114;2023-09-08T04:12:56;15.20;99.90
9125;DHT22;4597;48.730;9.114;2023-09-08T04:15:21;15.10;99.90
9125;DHT22;4597;48.730;9.114;2023-09-08T04:17:47;15.10;99.90
9125;DHT22;4597;48.730;9.114;2023-09-08T04:20:13;15.10;99.90
9125;DHT22;4597;48.730;9.114;2023-09-08T04:22:40;15.10;99.90
9125;DHT22;4597;48.730;9.114;2023-09-08T04:25:06;15.10;99.90
9125;DHT22;4597;48.730;9.114;2023-09-08T04:27:32;15.10;99.90
9125;DHT22;4597;48.730;9.114;2023-09-08T04:29:58;15.10;99.90
9125;DHT22;4597;48.730;9.114;2023-09-08T04:32:24;15.10;99.90
9125;DHT22;4597;48.730;9.114;2023-09-08T04:34:50;15.10;99.90
9125;DHT22;4597;48.730;9.114;2023-09-08T04:37:16;15.00;99.90
9125;DHT22;4597;48.730;9.114;2023-09-08T04:39:42;14.90;99.90
9125;DHT22;4597;48.730;9.114;2023-09-08T04:42:07;14.90;99.90
9125;DHT22;4597;48.730;9.114;2023-09-08T04:44:33;14.90;99.90
9125;DHT22;4597;48.730;9.114;2023-09-08T04:46:58;14.90;99.90
9125;DHT22;4597;48.730;9.114;2023-09-08T04:49:24;14.90;99.90
9125;DHT22;4597;48.730;9.114;2023-09-08T04:51:50;14.90;99.90
9125;DHT22;4597;48.730;9.114;2023-09-08T04:54:15;14.90;99.90
9125;DHT22;4597;48.730;9.114;2023-09-08T04:56:41;14.90;99.90
9125;DHT22;4597;48.730;9.114;2023-09-08T04:59:07;14.90;99.90
9125;DHT22;4597;48.730;9.114;2023-09-08T05:01:32;14.80;99.90
9125;DHT22;4597;48.730;9.114;2023-09-08T05:03:59;14.80;99.90
9125;DHT22;4597;48.730;9.114;2023-09-08T05:06:25;14.80;99.90
9125;DHT22;4597;48.730;9.114;2023-09-08T05:08:51;14.80;99.90
9125;DHT22;4597;48.730;9.114;2023-09-08T05:11:16;14.80;99.90
9125;DHT22;4597;48.730;9.114;2023-09-08T05:13:42;14.80;99.90
9125;DHT22;4597;48.730;9.114;2023-09-08T05:16:08;14.80;99.90
9125;DHT22;4597;48.730;9.114;2023-09-08T05:18:38;14.70;99.90
9125;DHT22;4597;48.730;9.114;2023-09-08T05:21:04;14.80;99.90
9125;DHT22;4597;48.730;9.114;2023-09-08T05:23:30;14.80;99.90
9125;DHT22;4597;48.730;9.114;2023-09-08T05:25:55;14.80;99.90
9125;DHT22;4597;48.730;9.114;2023-09-08T05:28:21;14.90;99.90
9125;DHT22;4597;48.730;9.114;2023-09-08T05:30:46;14.90;99.90
9125;DHT22;4597;48.730;9.114;2023-09-08T05:33:12;14.90;99.90
9125;DHT22;4597;48.730;9.114;2023-09-08T05:35:38;14.90;99.90
9125;DHT22;4597;48.730;9.114;2023-09-08T05:38:03;14.90;99.90
9125;DHT22;4597;48.730;9.114;2023-09-08T05:40:30;14.90;99.90
9125;DHT22;4597;48.730;9.114;2023-09-08T05:42:56;14.90;99.90
9125;DHT22;4597;48.730;9.114;2023-09-08T05:45:21;14.90;99.90
9125;DHT22;4597;48.730;9.114;2023-09-08T05:47:47;14.90;99.90
9125;DHT22;4597;48.730;9.114;2023-09-08T05:50:14;14.90;99.90
9125;DHT22;4597;48.730;9.114;2023-09-08T05:52:40;14.90;99.90
9125;DHT22;4597;48.730;9.114;2023-09-08T05:55:05;14.90;99.90
9125;DHT22;4597;48.730;9.114;2023-09-08T05:57:31;15.00;99.90
9125;DHT22;4597;48.730;9.114;2023-09-08T05:59:57;14.90;99.90
9125;DHT22;4597;48.730;9.114;2023-09-08T06:02:22;14.90;99.90
9125;DHT22;4597;48.730;9.114;2023-09-08T06:04:48;14.90;99.90
9125;DHT22;4597;48.730;9.114;2023-09-08T06:07:13;14.90;99.90
9125;DHT22;4597;48.730;9.114;2023-09-08T06:09:39;15.00;99.90
9125;DHT22;4597;48.730;9.114;2023-09-08T06:12:05;15.00;99.90
9125;DHT22;4597;48.730;9.114;2023-09-08T06:14:30;15.10;99.90
9125;DHT22;4597;48.730;9.114;2023-09-08T06:16:56;15.10;99.90
9125;DHT22;4597;48.730;9.114;2023-09-08T06:19:21;15.10;99.90
9125;DHT22;4597;48.730;9.114;2023-09-08T06:21:47;15.10;99.90
9125;DHT22;4597;48.730;9.114;2023-09-08T06:24:12;15.10;99.90
9125;DHT22;4597;48.730;9.114;2023-09-08T06:26:38;15.10;99.90
9125;DHT22;4597;48.730;9.114;2023-09-08T06:29:03;15.10;99.90
9125;DHT22;4597;48.730;9.114;2023-09-08T06:31:29;15.20;99.90
9125;DHT22;4597;48.730;9.114;2023-09-08T06:33:54;15.30;99.90
9125;DHT22;4597;48.730;9.114;2023-09-08T06:36:20;15.30;99.90
9125;DHT22;4597;48.730;9.114;2023-09-08T06:38:45;15.30;99.90
9125;DHT22;4597;48.730;9.114;2023-09-08T06:41:11;15.40;99.90
9125;DHT22;4597;48.730;9.114;2023-09-08T06:43:37;15.40;99.90
9125;DHT22;4597;48.730;9.114;2023-09-08T06:46:03;15.40;99.90
9125;DHT22;4597;48.730;9.114;2023-09-08T06:48:29;15.40;99.90
9125;DHT22;4597;48.730;9.114;2023-09-08T06:50:55;15.50;99.90
9125;DHT22;4597;48.730;9.114;2023-09-08T06:53:22;15.60;99.90
9125;DHT22;4597;48.730;9.114;2023-09-08T06:55:48;15.60;99.90
9125;DHT22;4597;48.730;9.114;2023-09-08T06:58:13;15.70;99.90
9125;DHT22;4597;48.730;9.114;2023-09-08T07:00:40;15.80;99.90
9125;DHT22;4597;48.730;9.114;2023-09-08T07:03:06;15.80;99.90
9125;DHT22;4597;48.730;9.114;2023-09-08T07:05:31;15.80;99.90
9125;DHT22;4597;48.730;9.114;2023-09-08T07:07:57;15.80;99.90
9125;DHT22;4597;48.730;9.114;2023-09-08T07:10:23;15.90;99.90
9125;DHT22;4597;48.730;9.114;2023-09-08T07:12:48;15.90;99.90
9125;DHT22;4597;48.730;9.114;2023-09-08T07:15:14;16.00;99.90
9125;DHT22;4597;48.730;9.114;2023-09-08T07:17:40;16.10;99.90
9125;DHT22;4597;48.730;9.114;2023-09-08T07:20:06;16.20;99.90
9125;DHT22;4597;48.730;9.114;2023-09-08T07:22:31;16.30;99.90
9125;DHT22;4597;48.730;9.114;2023-09-08T07:24:57;16.40;99.90
9125;DHT22;4597;48.730;9.114;2023-09-08T07:27:22;16.50;99.90
9125;DHT22;4597;48.730;9.114;2023-09-08T07:29:48;16.50;99.90
9125;DHT22;4597;48.730;9.114;2023-09-08T07:32:15;16.60;99.90
9125;DHT22;4597;48.730;9.114;2023-09-08T07:34:41;16.70;99.90
9125;DHT22;4597;48.730;9.114;2023-09-08T07:37:06;16.80;99.90
9125;DHT22;4597;48.730;9.114;2023-09-08T07:39:32;16.90;99.90
9125;DHT22;4597;48.730;9.114;2023-09-08T07:41:58;16.90;99.90
9125;DHT22;4597;48.730;9.114;2023-09-08T07:44:24;17.00;99.90
9125;DHT22;4597;48.730;9.114;2023-09-08T07:46:49;17.10;99.90
9125;DHT22;4597;48.730;9.114;2023-09-08T07:49:17;17.20;99.90
9125;DHT22;4597;48.730;9.114;2023-09-08T07:51:44;17.30;99.90
9125;DHT22;4597;48.730;9.114;2023-09-08T07:54:10;17.40;99.90
9125;DHT22;4597;48.730;9.114;2023-09-08T07:56:36;17.40;99.90
9125;DHT22;4597;48.730;9.114;2023-09-08T07:59:01;17.50;99.90
9125;DHT22;4597;48.730;9.114;2023-09-08T08:01:27;17.60;99.90
9125;DHT22;4597;48.730;9.114;2023-09-08T08:03:53;17.70;99.90
9125;DHT22;4597;48.730;9.114;2023-09-08T08:06:18;17.80;99.90
9125;DHT22;4597;48.730;9.114;2023-09-08T08:08:44;17.90;99.90
9125;DHT22;4597;48.730;9.114;2023-09-08T08:11:14;17.90;99.90
9125;DHT22;4597;48.730;9.114;2023-09-08T08:13:40;18.00;99.90
9125;DHT22;4597;48.730;9.114;2023-09-08T08:16:05;18.10;99.90
9125;DHT22;4597;48.730;9.114;2023-09-08T08:18:31;18.20;99.90
9125;DHT22;4597;48.730;9.114;2023-09-08T08:20:57;18.30;99.90
9125;DHT22;4597;48.730;9.114;2023-09-08T08:23:22;18.30;99.90
9125;DHT22;4597;48.730;9.114;2023-09-08T08:25:51;18.50;99.90
9125;DHT22;4597;48.730;9.114;2023-09-08T08:28:17;18.50;99.90
9125;DHT22;4597;48.730;9.114;2023-09-08T08:30:42;18.60;99.90
9125;DHT22;4597;48.730;9.114;2023-09-08T08:33:08;18.70;99.90
9125;DHT22;4597;48.730;9.114;2023-09-08T08:35:33;18.80;99.90
9125;DHT22;4597;48.730;9.114;2023-09-08T08:37:59;18.80;99.90
9125;DHT22;4597;48.730;9.114;2023-09-08T08:40:27;18.90;99.90
9125;DHT22;4597;48.730;9.114;2023-09-08T08:42:57;19.00;99.90
9125;DHT22;4597;48.730;9.114;2023-09-08T08:45:24;19.10;99.90
9125;DHT22;4597;48.730;9.114;2023-09-08T08:47:50;19.10;99.90
9125;DHT22;4597;48.730;9.114;2023-09-08T08:50:17;19.20;99.90
9125;DHT22;4597;48.730;9.114;2023-09-08T08:52:43;19.30;99.90
9125;DHT22;4597;48.730;9.114;2023-09-08T08:55:09;19.30;99.90
9125;DHT22;4597;48.730;9.114;2023-09-08T08:57:37;19.40;99.90
9125;DHT22;4597;48.730;9.114;2023-09-08T09:00:06;19.50;99.90
9125;DHT22;4597;48.730;9.114;2023-09-08T09:02:36;19.60;99.90
9125;DHT22;4597;48.730;9.114;2023-09-08T09:05:04;19.70;99.90
9125;DHT22;4597;48.730;9.114;2023-09-08T09:07:31;19.70;99.90
9125;DHT22;4597;48.730;9.114;2023-09-08T09:09:57;19.80;99.90
9125;DHT22;4597;48.730;9.114;2023-09-08T09:12:23;19.90;99.90
9125;DHT22;4597;48.730;9.114;2023-09-08T09:14:53;20.00;99.90
9125;DHT22;4597;48.730;9.114;2023-09-08T09:17:18;20.10;99.90
9125;DHT22;4597;48.730;9.114;2023-09-08T09:19:44;20.20;99.90
9125;DHT22;4597;48.730;9.114;2023-09-08T09:22:10;20.30;99.90
9125;DHT22;4597;48.730;9.114;2023-09-08T09:24:37;20.30;99.90
9125;DHT22;4597;48.730;9.114;2023-09-08T09:27:04;20.40;99.90
9125;DHT22;4597;48.730;9.114;2023-09-08T09:29:31;20.50;99.90
9125;DHT22;4597;48.730;9.114;2023-09-08T09:34:24;20.60;99.90
9125;DHT22;4597;48.730;9.114;2023-09-08T09:36:51;20.60;99.90
9125;DHT22;4597;48.730;9.114;2023-09-08T09:39:21;20.60;99.90
9125;DHT22;4597;48.730;9.114;2023-09-08T09:41:47;20.70;99.90
9125;DHT22;4597;48.730;9.114;2023-09-08T09:44:14;20.80;99.90
9125;DHT22;4597;48.730;9.114;2023-09-08T09:46:43;20.90;99.90
9125;DHT22;4597;48.730;9.114;2023-09-08T09:49:14;21.00;99.90
9125;DHT22;4597;48.730;9.114;2023-09-08T09:51:49;21.10;99.90
9125;DHT22;4597;48.730;9.114;2023-09-08T09:54:16;21.20;99.90
9125;DHT22;4597;48.730;9.114;2023-09-08T09:56:43;21.20;99.90
9125;DHT22;4597;48.730;9.114;2023-09-08T09:59:10;21.30;99.90
9125;DHT22;4597;48.730;9.114;2023-09-08T10:01:36;21.40;99.90
9125;DHT22;4597;48.730;9.114;2023-09-08T10:04:03;21.50;99.90
9125;DHT22;4597;48.730;9.114;2023-09-08T10:06:35;21.50;99.90
9125;DHT22;4597;48.730;9.114;2023-09-08T10:09:02;21.50;99.90
9125;DHT22;4597;48.730;9.114;2023-09-08T10:11:47;21.60;99.90
9125;DHT22;4597;48.730;9.114;2023-09-08T10:14:16;21.70;99.90
9125;DHT22;4597;48.730;9.114;2023-09-08T10:16:44;21.80;99.90
9125;DHT22;4597;48.730;9.114;2023-09-08T10:19:11;21.90;99.90
9125;DHT22;4597;48.730;9.114;2023-09-08T10:21:41;21.90;99.90
9125;DHT22;4597;48.730;9.114;2023-09-08T10:24:21;22.00;99.90
9125;DHT22;4597;48.730;9.114;2023-09-08T10:29:29;22.20;99.90
9125;DHT22;4597;48.730;9.114;2023-09-08T10:31:56;22.40;99.90
9125;DHT22;4597;48.730;9.114;2023-09-08T10:34:24;22.50;99.90
9125;DHT22;4597;48.730;9.114;2023-09-08T10:36:50;22.60;99.90
9125;DHT22;4597;48.730;9.114;2023-09-08T10:39:35;22.60;99.90
9125;DHT22;4597;48.730;9.114;2023-09-08T10:47:13;22.70;99.90
9125;DHT22;4597;48.730;9.114;2023-09-08T10:49:39;22.80;99.90
9125;DHT22;4597;48.730;9.114;2023-09-08T10:52:09;22.90;99.90
9125;DHT22;4597;48.730;9.114;2023-09-08T10:54:47;22.90;99.90
9125;DHT22;4597;48.730;9.114;2023-09-08T10:57:14;23.00;99.90
9125;DHT22;4597;48.730;9.114;2023-09-08T11:00:00;23.20;99.90
9125;DHT22;4597;48.730;9.114;2023-09-08T11:02:48;23.20;99.90
9125;DHT22;4597;48.730;9.114;2023-09-08T11:05:14;23.30;99.90
9125;DHT22;4597;48.730;9.114;2023-09-08T11:07:41;23.30;99.90
9125;DHT22;4597;48.730;9.114;2023-09-08T11:10:08;23.40;99.90
9125;DHT22;4597;48.730;9.114;2023-09-08T11:12:34;23.50;99.90
9125;DHT22;4597;48.730;9.114;2023-09-08T11:15:02;23.50;99.90
9125;DHT22;4597;48.730;9.114;2023-09-08T11:17:31;23.70;99.90
9125;DHT22;4597;48.730;9.114;2023-09-08T11:19:57;23.70;99.90
9125;DHT22;4597;48.730;9.114;2023-09-08T11:22:26;23.80;99.90
9125;DHT22;4597;48.730;9.114;2023-09-08T11:24:58;23.90;99.90
9125;DHT22;4597;48.730;9.114;2023-09-08T11:27:23;23.90;99.90
9125;DHT22;4597;48.730;9.114;2023-09-08T11:29:49;24.00;99.90
9125;DHT22;4597;48.730;9.114;2023-09-08T11:32:15;24.10;99.90
9125;DHT22;4597;48.730;9.114;2023-09-08T11:34:41;24.20;99.90
9125;DHT22;4597;48.730;9.114;2023-09-08T11:37:15;24.20;99.90
9125;DHT22;4597;48.730;9.114;2023-09-08T11:39:42;24.30;99.90
9125;DHT22;4597;48.730;9.114;2023-09-08T11:42:12;24.40;99.90
9125;DHT22;4597;48.730;9.114;2023-09-08T11:44:38;24.50;99.90
9125;DHT22;4597;48.730;9.114;2023-09-08T11:47:06;24.60;99.90
9125;DHT22;4597;48.730;9.114;2023-09-08T11:49:35;24.70;99.90
9125;DHT22;4597;48.730;9.114;2023-09-08T11:52:02;24.70;99.90
9125;DHT22;4597;48.730;9.114;2023-09-08T11:54:29;24.80;99.90
9125;DHT22;4597;48.730;9.114;2023-09-08T11:56:55;24.90;99.90
9125;DHT22;4597;48.730;9.114;2023-09-08T11:59:21;25.00;99.90
9125;DHT22;4597;48.730;9.114;2023-09-08T12:01:47;25.10;99.90
9125;DHT22;4597;48.730;9.114;2023-09-08T12:04:19;25.20;99.90
9125;DHT22;4597;48.730;9.114;2023-09-08T12:06:47;25.20;99.90
9125;DHT22;4597;48.730;9.114;2023-09-08T12:09:14;25.30;99.90
9125;DHT22;4597;48.730;9.114;2023-09-08T12:11:39;25.40;99.90
9125;DHT22;4597;48.730;9.114;2023-09-08T12:14:10;25.50;99.90
9125;DHT22;4597;48.730;9.114;2023-09-08T12:16:36;25.60;99.90
9125;DHT22;4597;48.730;9.114;2023-09-08T12:19:02;25.70;99.90
9125;DHT22;4597;48.730;9.114;2023-09-08T12:21:27;25.80;99.90
9125;DHT22;4597;48.730;9.114;2023-09-08T12:23:53;25.90;99.90
9125;DHT22;4597;48.730;9.114;2023-09-08T12:26:20;26.00;99.90
9125;DHT22;4597;48.730;9.114;2023-09-08T12:28:47;26.20;99.90
9125;DHT22;4597;48.730;9.114;2023-09-08T12:31:13;26.30;99.90
9125;DHT22;4597;48.730;9.114;2023-09-08T12:33:39;26.40;99.90
9125;DHT22;4597;48.730;9.114;2023-09-08T12:36:16;26.50;99.90
9125;DHT22;4597;48.730;9.114;2023-09-08T12:38:51;26.50;99.90
9125;DHT22;4597;48.730;9.114;2023-09-08T12:41:17;26.70;99.90
9125;DHT22;4597;48.730;9.114;2023-09-08T12:43:42;26.80;99.90
9125;DHT22;4597;48.730;9.114;2023-09-08T12:46:08;26.90;99.60
9125;DHT22;4597;48.730;9.114;2023-09-08T12:48:33;27.10;99.10
9125;DHT22;4597;48.730;9.114;2023-09-08T12:50:59;27.20;96.70
9125;DHT22;4597;48.730;9.114;2023-09-08T12:53:24;27.30;95.30
9125;DHT22;4597;48.730;9.114;2023-09-08T12:55:50;27.40;95.20
9125;DHT22;4597;48.730;9.114;2023-09-08T12:58:16;27.50;94.10
9125;DHT22;4597;48.730;9.114;2023-09-08T13:00:45;27.70;90.80
9125;DHT22;4597;48.730;9.114;2023-09-08T13:03:10;27.70;95.00
9125;DHT22;4597;48.730;9.114;2023-09-08T13:05:36;27.90;86.70
9125;DHT22;4597;48.730;9.114;2023-09-08T13:08:04;28.00;91.00
9125;DHT22;4597;48.730;9.114;2023-09-08T13:10:29;28.20;90.30
9125;DHT22;4597;48.730;9.114;2023-09-08T13:12:55;28.50;87.40
9125;DHT22;4597;48.730;9.114;2023-09-08T13:15:20;28.60;82.70
9125;DHT22;4597;48.730;9.114;2023-09-08T13:17:46;28.80;81.20
9125;DHT22;4597;48.730;9.114;2023-09-08T13:20:11;28.90;84.90
9125;DHT22;4597;48.730;9.114;2023-09-08T13:22:37;29.10;80.90
9125;DHT22;4597;48.730;9.114;2023-09-08T13:25:03;29.20;74.30
9125;DHT22;4597;48.730;9.114;2023-09-08T13:27:29;29.40;72.50
9125;DHT22;4597;48.730;9.114;2023-09-08T13:29:54;29.50;70.60
9125;DHT22;4597;48.730;9.114;2023-09-08T13:32:32;29.70;75.80
9125;DHT22;4597;48.730;9.114;2023-09-08T13:34:57;30.00;70.10
9125;DHT22;4597;48.730;9.114;2023-09-08T13:37:23;30.20;68.20
9125;DHT22;4597;48.730;9.114;2023-09-08T13:39:49;30.50;65.80
9125;DHT22;4597;48.730;9.114;2023-09-08T13:42:14;30.80;66.10
9125;DHT22;4597;48.730;9.114;2023-09-08T13:44:40;31.00;63.90
9125;DHT22;4597;48.730;9.114;2023-09-08T13:47:05;31.30;63.80
9125;DHT22;4597;48.730;9.114;2023-09-08T13:49:31;31.50;57.90
9125;DHT22;4597;48.730;9.114;2023-09-08T13:51:56;31.70;55.60
9125;DHT22;4597;48.730;9.114;2023-09-08T13:54:22;31.70;53.10
9125;DHT22;4597;48.730;9.114;2023-09-08T13:57:00;31.80;51.70
9125;DHT22;4597;48.730;9.114;2023-09-08T13:59:27;32.00;50.50
9125;DHT22;4597;48.730;9.114;2023-09-08T14:01:53;32.40;53.90
9125;DHT22;4597;48.730;9.114;2023-09-08T14:04:19;32.50;48.30
9125;DHT22;4597;48.730;9.114;2023-09-08T14:06:45;32.90;47.80
9125;DHT22;4597;48.730;9.114;2023-09-08T14:09:10;33.00;46.00
9125;DHT22;4597;48.730;9.114;2023-09-08T14:11:36;33.30;46.80
9125;DHT22;4597;48.730;9.114;2023-09-08T14:14:01;33.60;47.40
9125;DHT22;4597;48.730;9.114;2023-09-08T14:16:28;33.70;41.40
9125;DHT22;4597;48.730;9.114;2023-09-08T14:18:54;33.70;41.20
9125;DHT22;4597;48.730;9.114;2023-09-08T14:21:19;33.90;42.10
9125;DHT22;4597;48.730;9.114;2023-09-08T14:23:46;34.20;42.00
9125;DHT22;4597;48.730;9.114;2023-09-08T14:26:11;34.30;41.30
9125;DHT22;4597;48.730;9.114;2023-09-08T14:28:37;34.80;39.90
9125;DHT22;4597;48.730;9.114;2023-09-08T14:31:02;34.90;37.80
9125;DHT22;4597;48.730;9.114;2023-09-08T14:33:28;35.20;37.10
9125;DHT22;4597;48.730;9.114;2023-09-08T14:35:53;35.40;36.90
9125;DHT22;4597;48.730;9.114;2023-09-08T14:38:21;35.80;34.50
9125;DHT22;4597;48.730;9.114;2023-09-08T14:41:02;35.80;35.30
9125;DHT22;4597;48.730;9.114;2023-09-08T14:43:29;36.20;33.70
9125;DHT22;4597;48.730;9.114;2023-09-08T14:45:55;36.10;33.60
9125;DHT22;4597;48.730;9.114;2023-09-08T14:48:24;36.40;33.40
9125;DHT22;4597;48.730;9.114;2023-09-08T14:50:50;36.70;34.70
9125;DHT22;4597;48.730;9.114;2023-09-08T14:53:15;37.00;31.80
9125;DHT22;4597;48.730;9.114;2023-09-08T14:55:41;37.40;31.10
9125;DHT22;4597;48.730;9.114;2023-09-08T14:58:09;37.90;30.20
9125;DHT22;4597;48.730;9.114;2023-09-08T15:00:36;38.90;29.50
9125;DHT22;4597;48.730;9.114;2023-09-08T15:03:01;40.10;27.00
9125;DHT22;4597;48.730;9.114;2023-09-08T15:05:30;41.30;23.00
9125;DHT22;4597;48.730;9.114;2023-09-08T15:07:56;42.20;21.40
9125;DHT22;4597;48.730;9.114;2023-09-08T15:10:21;43.10;20.60
9125;DHT22;4597;48.730;9.114;2023-09-08T15:12:47;43.80;18.80
9125;DHT22;4597;48.730;9.114;2023-09-08T15:15:13;44.30;18.70
9125;DHT22;4597;48.730;9.114;2023-09-08T15:17:39;44.30;17.50
9125;DHT22;4597;48.730;9.114;2023-09-08T15:20:05;44.50;17.20
9125;DHT22;4597;48.730;9.114;2023-09-08T15:22:31;44.90;16.70
9125;DHT22;4597;48.730;9.114;2023-09-08T15:24:56;44.90;16.00
9125;DHT22;4597;48.730;9.114;2023-09-08T15:27:21;44.90;15.70
9125;DHT22;4597;48.730;9.114;2023-09-08T15:29:47;44.50;15.50
9125;DHT22;4597;48.730;9.114;2023-09-08T15:32:12;44.10;17.00
9125;DHT22;4597;48.730;9.114;2023-09-08T15:34:38;43.10;17.30
9125;DHT22;4597;48.730;9.114;2023-09-08T15:37:03;42.00;19.10
9125;DHT22;4597;48.730;9.114;2023-09-08T15:39:29;41.00;20.30
9125;DHT22;4597;48.730;9.114;2023-09-08T15:41:54;40.00;19.90
9125;DHT22;4597;48.730;9.114;2023-09-08T15:44:20;39.30;22.50
9125;DHT22;4597;48.730;9.114;2023-09-08T15:46:45;38.60;21.80
9125;DHT22;4597;48.730;9.114;2023-09-08T15:49:11;38.00;22.80
9125;DHT22;4597;48.730;9.114;2023-09-08T15:51:37;37.70;24.20
9125;DHT22;4597;48.730;9.114;2023-09-08T15:54:02;37.70;25.00
9125;DHT22;4597;48.730;9.114;2023-09-08T15:56:29;37.70;24.00
9125;DHT22;4597;48.730;9.114;2023-09-08T15:58:54;37.60;24.90
9125;DHT22;4597;48.730;9.114;2023-09-08T16:01:20;37.40;24.80
9125;DHT22;4597;48.730;9.114;2023-09-08T16:03:45;37.40;23.90
9125;DHT22;4597;48.730;9.114;2023-09-08T16:06:11;37.40;24.00
9125;DHT22;4597;48.730;9.114;2023-09-08T16:08:37;37.40;25.00
9125;DHT22;4597;48.730;9.114;2023-09-08T16:11:03;37.50;24.70
9125;DHT22;4597;48.730;9.114;2023-09-08T16:13:30;38.30;23.50